sensor_id;sensor_type;location;lat;lon;timestamp;P1;durP1;ratioP1;P2;durP2;ratioP2
47335;SDS011;33068;51.990;5.926;2022-08-05T00:02:22;5.10;;;2.30;;
47335;SDS011;33068;51.990;5.926;2022-08-05T00:04:49;5.13;;;2.35;;
47335;SDS011;33068;51.990;5.926;2022-08-05T00:07:16;4.97;;;1.80;;
47335;SDS011;33068;51.990;5.926;2022-08-05T00:09:44;3.13;;;2.33;;
47335;SDS011;33068;51.990;5.926;2022-08-05T00:12:11;3.40;;;1.90;;
47335;SDS011;33068;51.990;5.926;2022-08-05T00:14:39;3.50;;;1.80;;
47335;SDS011;33068;51.990;5.926;2022-08-05T00:17:06;2.33;;;1.80;;
47335;SDS011;33068;51.990;5.926;2022-08-05T00:19:34;4.65;;;2.67;;
47335;SDS011;33068;51.990;5.926;2022-08-05T00:22:01;7.72;;;2.30;;
47335;SDS011;33068;51.990;5.926;2022-08-05T00:24:29;3.08;;;2.00;;
47335;SDS011;33068;51.990;5.926;2022-08-05T00:26:56;5.82;;;2.38;;
47335;SDS011;33068;51.990;5.926;2022-08-05T00:29:23;4.32;;;2.40;;
47335;SDS011;33068;51.990;5.926;2022-08-05T00:31:52;3.85;;;2.20;;
47335;SDS011;33068;51.990;5.926;2022-08-05T00:34:20;4.40;;;2.42;;
47335;SDS011;33068;51.990;5.926;2022-08-05T00:36:47;4.15;;;2.95;;
47335;SDS011;33068;51.990;5.926;2022-08-05T00:39:15;2.35;;;2.15;;
47335;SDS011;33068;51.990;5.926;2022-08-05T00:41:44;3.38;;;2.05;;
47335;SDS011;33068;51.990;5.926;2022-08-05T00:44:12;3.97;;;2.22;;
47335;SDS011;33068;51.990;5.926;2022-08-05T00:46:39;5.30;;;2.42;;
47335;SDS011;33068;51.990;5.926;2022-08-05T00:49:07;7.60;;;2.53;;
47335;SDS011;33068;51.990;5.926;2022-08-05T00:51:35;2.55;;;2.17;;
47335;SDS011;33068;51.990;5.926;2022-08-05T00:54:02;4.38;;;2.08;;
47335;SDS011;33068;51.990;5.926;2022-08-05T00:56:29;5.07;;;2.33;;
47335;SDS011;33068;51.990;5.926;2022-08-05T00:58:59;3.92;;;2.03;;
47335;SDS011;33068;51.990;5.926;2022-08-05T01:01:27;7.20;;;2.15;;
47335;SDS011;33068;51.990;5.926;2022-08-05T01:03:54;9.23;;;2.60;;
47335;SDS011;33068;51.990;5.926;2022-08-05T01:06:23;5.85;;;2.50;;
47335;SDS011;33068;51.990;5.926;2022-08-05T01:08:50;5.20;;;2.80;;
47335;SDS011;33068;51.990;5.926;2022-08-05T01:11:18;3.33;;;2.30;;
47335;SDS011;33068;51.990;5.926;2022-08-05T01:13:51;4.90;;;2.75;;
47335;SDS011;33068;51.990;5.926;2022-08-05T01:16:28;4.13;;;2.58;;
47335;SDS011;33068;51.990;5.926;2022-08-05T01:19:10;3.03;;;2.75;;
47335;SDS011;33068;51.990;5.926;2022-08-05T01:22:01;6.78;;;2.10;;
47335;SDS011;33068;51.990;5.926;2022-08-05T01:27:58;3.25;;;2.40;;
47335;SDS011;33068;51.990;5.926;2022-08-05T01:30:43;4.28;;;2.33;;
47335;SDS011;33068;51.990;5.926;2022-08-05T01:33:15;7.05;;;2.85;;
47335;SDS011;33068;51.990;5.926;2022-08-05T01:35:48;6.05;;;2.65;;
47335;SDS011;33068;51.990;5.926;2022-08-05T01:38:17;4.15;;;2.53;;
47335;SDS011;33068;51.990;5.926;2022-08-05T01:40:45;7.32;;;2.97;;
47335;SDS011;33068;51.990;5.926;2022-08-05T01:43:14;4.90;;;2.83;;
47335;SDS011;33068;51.990;5.926;2022-08-05T01:45:43;6.82;;;3.13;;
47335;SDS011;33068;51.990;5.926;2022-08-05T01:48:11;6.50;;;3.03;;
47335;SDS011;33068;51.990;5.926;2022-08-05T01:50:41;4.72;;;2.55;;
47335;SDS011;33068;51.990;5.926;2022-08-05T01:53:11;5.97;;;3.25;;
47335;SDS011;33068;51.990;5.926;2022-08-05T01:55:41;2.15;;;1.95;;
47335;SDS011;33068;51.990;5.926;2022-08-05T01:58:10;7.28;;;3.17;;
47335;SDS011;33068;51.990;5.926;2022-08-05T02:00:43;5.88;;;2.88;;
47335;SDS011;33068;51.990;5.926;2022-08-05T02:03:16;5.45;;;3.03;;
47335;SDS011;33068;51.990;5.926;2022-08-05T02:05:47;5.00;;;2.38;;
47335;SDS011;33068;51.990;5.926;2022-08-05T02:08:15;6.10;;;3.05;;
47335;SDS011;33068;51.990;5.926;2022-08-05T02:10:44;5.60;;;3.00;;
47335;SDS011;33068;51.990;5.926;2022-08-05T02:13:15;6.15;;;3.05;;
47335;SDS011;33068;51.990;5.926;2022-08-05T02:15:48;7.18;;;3.35;;
47335;SDS011;33068;51.990;5.926;2022-08-05T02:18:21;3.38;;;3.00;;
47335;SDS011;33068;51.990;5.926;2022-08-05T02:20:51;5.75;;;3.17;;
47335;SDS011;33068;51.990;5.926;2022-08-05T02:23:23;6.03;;;3.25;;
47335;SDS011;33068;51.990;5.926;2022-08-05T02:25:54;4.10;;;3.22;;
47335;SDS011;33068;51.990;5.926;2022-08-05T02:28:24;2.17;;;2.00;;
47335;SDS011;33068;51.990;5.926;2022-08-05T02:30:57;4.25;;;2.53;;
47335;SDS011;33068;51.990;5.926;2022-08-05T02:33:27;5.80;;;3.20;;
47335;SDS011;33068;51.990;5.926;2022-08-05T02:35:58;5.75;;;3.38;;
47335;SDS011;33068;51.990;5.926;2022-08-05T02:38:27;5.57;;;3.00;;
47335;SDS011;33068;51.990;5.926;2022-08-05T02:40:55;11.45;;;3.05;;
47335;SDS011;33068;51.990;5.926;2022-08-05T02:43:24;8.68;;;2.92;;
47335;SDS011;33068;51.990;5.926;2022-08-05T02:45:53;4.32;;;2.65;;
47335;SDS011;33068;51.990;5.926;2022-08-05T02:48:22;5.82;;;3.42;;
47335;SDS011;33068;51.990;5.926;2022-08-05T02:50:52;8.50;;;3.03;;
47335;SDS011;33068;51.990;5.926;2022-08-05T02:53:20;8.75;;;2.95;;
47335;SDS011;33068;51.990;5.926;2022-08-05T02:55:48;4.43;;;2.85;;
47335;SDS011;33068;51.990;5.926;2022-08-05T02:58:17;5.38;;;2.97;;
47335;SDS011;33068;51.990;5.926;2022-08-05T03:00:47;6.35;;;3.35;;
47335;SDS011;33068;51.990;5.926;2022-08-05T03:03:15;7.07;;;3.38;;
47335;SDS011;33068;51.990;5.926;2022-08-05T03:05:47;4.30;;;3.38;;
47335;SDS011;33068;51.990;5.926;2022-08-05T03:08:15;6.47;;;3.33;;
47335;SDS011;33068;51.990;5.926;2022-08-05T03:10:44;8.98;;;3.38;;
47335;SDS011;33068;51.990;5.926;2022-08-05T03:13:11;5.68;;;3.10;;
47335;SDS011;33068;51.990;5.926;2022-08-05T03:15:42;7.03;;;3.20;;
47335;SDS011;33068;51.990;5.926;2022-08-05T03:18:10;3.88;;;2.60;;
47335;SDS011;33068;51.990;5.926;2022-08-05T03:20:38;9.15;;;3.42;;
47335;SDS011;33068;51.990;5.926;2022-08-05T03:23:07;11.25;;;3.65;;
47335;SDS011;33068;51.990;5.926;2022-08-05T03:25:36;4.30;;;3.40;;
47335;SDS011;33068;51.990;5.926;2022-08-05T03:28:04;8.38;;;3.17;;
47335;SDS011;33068;51.990;5.926;2022-08-05T03:30:33;11.70;;;3.67;;
47335;SDS011;33068;51.990;5.926;2022-08-05T03:33:02;5.25;;;3.47;;
47335;SDS011;33068;51.990;5.926;2022-08-05T03:35:33;4.97;;;3.50;;
47335;SDS011;33068;51.990;5.926;2022-08-05T03:38:01;7.07;;;3.20;;
47335;SDS011;33068;51.990;5.926;2022-08-05T03:40:29;7.85;;;3.22;;
47335;SDS011;33068;51.990;5.926;2022-08-05T03:42:56;5.32;;;3.45;;
47335;SDS011;33068;51.990;5.926;2022-08-05T03:45:24;7.20;;;2.83;;
47335;SDS011;33068;51.990;5.926;2022-08-05T03:47:50;7.25;;;3.28;;
47335;SDS011;33068;51.990;5.926;2022-08-05T03:50:18;5.10;;;2.90;;
47335;SDS011;33068;51.990;5.926;2022-08-05T03:52:48;3.72;;;2.78;;
47335;SDS011;33068;51.990;5.926;2022-08-05T03:55:22;4.07;;;3.10;;
47335;SDS011;33068;51.990;5.926;2022-08-05T03:57:54;4.25;;;2.83;;
47335;SDS011;33068;51.990;5.926;2022-08-05T04:00:22;4.68;;;2.67;;
47335;SDS011;33068;51.990;5.926;2022-08-05T04:02:54;4.90;;;2.70;;
47335;SDS011;33068;51.990;5.926;2022-08-05T04:05:24;5.50;;;3.08;;
47335;SDS011;33068;51.990;5.926;2022-08-05T04:07:53;5.43;;;2.92;;
47335;SDS011;33068;51.990;5.926;2022-08-05T04:10:21;4.65;;;3.22;;
47335;SDS011;33068;51.990;5.926;2022-08-05T04:12:48;4.80;;;2.90;;
47335;SDS011;33068;51.990;5.926;2022-08-05T04:15:17;5.03;;;3.40;;
47335;SDS011;33068;51.990;5.926;2022-08-05T04:17:54;7.65;;;3.25;;
47335;SDS011;33068;51.990;5.926;2022-08-05T04:20:22;5.93;;;2.53;;
47335;SDS011;33068;51.990;5.926;2022-08-05T04:22:52;4.68;;;3.33;;
47335;SDS011;33068;51.990;5.926;2022-08-05T04:25:20;7.60;;;2.78;;
47335;SDS011;33068;51.990;5.926;2022-08-05T04:27:47;6.85;;;2.88;;
47335;SDS011;33068;51.990;5.926;2022-08-05T04:30:16;3.97;;;3.13;;
47335;SDS011;33068;51.990;5.926;2022-08-05T04:32:44;2.58;;;2.38;;
47335;SDS011;33068;51.990;5.926;2022-08-05T04:35:12;4.47;;;3.15;;
47335;SDS011;33068;51.990;5.926;2022-08-05T04:37:39;3.60;;;2.88;;
47335;SDS011;33068;51.990;5.926;2022-08-05T04:40:07;8.13;;;2.80;;
47335;SDS011;33068;51.990;5.926;2022-08-05T04:42:39;4.00;;;2.67;;
47335;SDS011;33068;51.990;5.926;2022-08-05T04:45:06;6.53;;;3.50;;
47335;SDS011;33068;51.990;5.926;2022-08-05T04:47:35;6.32;;;3.35;;
47335;SDS011;33068;51.990;5.926;2022-08-05T04:50:03;3.97;;;3.17;;
47335;SDS011;33068;51.990;5.926;2022-08-05T04:52:30;3.13;;;2.90;;
47335;SDS011;33068;51.990;5.926;2022-08-05T04:54:57;4.13;;;2.97;;
47335;SDS011;33068;51.990;5.926;2022-08-05T04:57:25;3.00;;;2.50;;
47335;SDS011;33068;51.990;5.926;2022-08-05T04:59:52;7.50;;;3.28;;
47335;SDS011;33068;51.990;5.926;2022-08-05T05:02:19;8.57;;;3.30;;
47335;SDS011;33068;51.990;5.926;2022-08-05T05:04:47;5.95;;;2.92;;
47335;SDS011;33068;51.990;5.926;2022-08-05T05:07:15;4.40;;;2.83;;
47335;SDS011;33068;51.990;5.926;2022-08-05T05:09:42;6.57;;;2.83;;
47335;SDS011;33068;51.990;5.926;2022-08-05T05:12:10;2.90;;;2.58;;
47335;SDS011;33068;51.990;5.926;2022-08-05T05:14:37;5.35;;;2.92;;
47335;SDS011;33068;51.990;5.926;2022-08-05T05:17:04;5.15;;;2.80;;
47335;SDS011;33068;51.990;5.926;2022-08-05T05:19:31;6.70;;;2.80;;
47335;SDS011;33068;51.990;5.926;2022-08-05T05:21:59;5.90;;;2.80;;
47335;SDS011;33068;51.990;5.926;2022-08-05T05:24:26;4.43;;;2.30;;
47335;SDS011;33068;51.990;5.926;2022-08-05T05:26:53;2.97;;;2.25;;
47335;SDS011;33068;51.990;5.926;2022-08-05T05:29:20;4.18;;;2.15;;
47335;SDS011;33068;51.990;5.926;2022-08-05T05:31:48;5.30;;;2.45;;
47335;SDS011;33068;51.990;5.926;2022-08-05T05:34:15;3.00;;;2.50;;
47335;SDS011;33068;51.990;5.926;2022-08-05T05:36:42;4.38;;;2.40;;
47335;SDS011;33068;51.990;5.926;2022-08-05T05:39:10;3.78;;;2.20;;
47335;SDS011;33068;51.990;5.926;2022-08-05T05:41:38;2.40;;;2.20;;
47335;SDS011;33068;51.990;5.926;2022-08-05T05:44:05;8.60;;;1.88;;
47335;SDS011;33068;51.990;5.926;2022-08-05T05:46:32;4.40;;;1.85;;
47335;SDS011;33068;51.990;5.926;2022-08-05T05:48:59;6.93;;;2.45;;
47335;SDS011;33068;51.990;5.926;2022-08-05T05:51:27;5.50;;;2.22;;
47335;SDS011;33068;51.990;5.926;2022-08-05T05:53:54;4.93;;;1.95;;
47335;SDS011;33068;51.990;5.926;2022-08-05T05:56:24;4.70;;;2.47;;
47335;SDS011;33068;51.990;5.926;2022-08-05T05:58:52;4.22;;;2.72;;
47335;SDS011;33068;51.990;5.926;2022-08-05T06:01:20;5.18;;;1.88;;
47335;SDS011;33068;51.990;5.926;2022-08-05T06:03:47;5.05;;;2.50;;
47335;SDS011;33068;51.990;5.926;2022-08-05T06:06:14;3.72;;;2.33;;
47335;SDS011;33068;51.990;5.926;2022-08-05T06:08:41;6.13;;;1.85;;
47335;SDS011;33068;51.990;5.926;2022-08-05T06:11:08;1.70;;;1.48;;
47335;SDS011;33068;51.990;5.926;2022-08-05T06:13:37;4.18;;;2.08;;
47335;SDS011;33068;51.990;5.926;2022-08-05T06:16:05;9.52;;;2.22;;
47335;SDS011;33068;51.990;5.926;2022-08-05T06:18:32;3.33;;;1.70;;
47335;SDS011;33068;51.990;5.926;2022-08-05T06:21:01;1.98;;;1.45;;
47335;SDS011;33068;51.990;5.926;2022-08-05T06:23:29;3.85;;;1.48;;
47335;SDS011;33068;51.990;5.926;2022-08-05T06:25:57;3.42;;;1.35;;
47335;SDS011;33068;51.990;5.926;2022-08-05T06:28:24;5.20;;;2.22;;
47335;SDS011;33068;51.990;5.926;2022-08-05T06:30:52;2.05;;;1.77;;
47335;SDS011;33068;51.990;5.926;2022-08-05T06:33:19;2.50;;;1.30;;
47335;SDS011;33068;51.990;5.926;2022-08-05T06:35:46;2.70;;;1.52;;
47335;SDS011;33068;51.990;5.926;2022-08-05T06:38:13;2.80;;;1.55;;
47335;SDS011;33068;51.990;5.926;2022-08-05T06:40:41;6.15;;;1.55;;
47335;SDS011;33068;51.990;5.926;2022-08-05T06:43:10;1.83;;;1.40;;
47335;SDS011;33068;51.990;5.926;2022-08-05T06:45:37;3.58;;;1.67;;
47335;SDS011;33068;51.990;5.926;2022-08-05T06:48:06;2.55;;;1.40;;
47335;SDS011;33068;51.990;5.926;2022-08-05T06:50:36;3.85;;;1.15;;
47335;SDS011;33068;51.990;5.926;2022-08-05T06:53:04;2.55;;;1.17;;
47335;SDS011;33068;51.990;5.926;2022-08-05T06:55:31;3.15;;;1.20;;
47335;SDS011;33068;51.990;5.926;2022-08-05T06:57:58;4.45;;;1.23;;
47335;SDS011;33068;51.990;5.926;2022-08-05T07:00:25;2.75;;;1.40;;
47335;SDS011;33068;51.990;5.926;2022-08-05T07:02:53;2.50;;;1.13;;
47335;SDS011;33068;51.990;5.926;2022-08-05T07:05:22;2.38;;;1.00;;
47335;SDS011;33068;51.990;5.926;2022-08-05T07:07:49;2.97;;;1.30;;
47335;SDS011;33068;51.990;5.926;2022-08-05T07:10:16;4.57;;;1.23;;
47335;SDS011;33068;51.990;5.926;2022-08-05T07:12:43;2.40;;;0.88;;
47335;SDS011;33068;51.990;5.926;2022-08-05T07:15:28;1.30;;;0.82;;
47335;SDS011;33068;51.990;5.926;2022-08-05T07:18:13;3.65;;;0.85;;
47335;SDS011;33068;51.990;5.926;2022-08-05T07:20:42;2.35;;;1.00;;
47335;SDS011;33068;51.990;5.926;2022-08-05T07:23:09;3.08;;;0.73;;
47335;SDS011;33068;51.990;5.926;2022-08-05T07:25:36;2.25;;;1.08;;
47335;SDS011;33068;51.990;5.926;2022-08-05T07:28:03;3.10;;;1.48;;
47335;SDS011;33068;51.990;5.926;2022-08-05T07:30:31;2.92;;;0.70;;
47335;SDS011;33068;51.990;5.926;2022-08-05T07:32:59;1.92;;;0.90;;
47335;SDS011;33068;51.990;5.926;2022-08-05T07:35:27;4.90;;;0.93;;
47335;SDS011;33068;51.990;5.926;2022-08-05T07:37:56;5.65;;;0.98;;
47335;SDS011;33068;51.990;5.926;2022-08-05T07:40:23;2.45;;;0.90;;
47335;SDS011;33068;51.990;5.926;2022-08-05T07:42:51;2.17;;;0.70;;
47335;SDS011;33068;51.990;5.926;2022-08-05T07:45:18;4.43;;;1.25;;
47335;SDS011;33068;51.990;5.926;2022-08-05T07:47:45;4.90;;;0.95;;
47335;SDS011;33068;51.990;5.926;2022-08-05T07:50:12;5.18;;;0.80;;
47335;SDS011;33068;51.990;5.926;2022-08-05T07:52:41;4.00;;;1.00;;
47335;SDS011;33068;51.990;5.926;2022-08-05T07:55:10;2.63;;;1.20;;
47335;SDS011;33068;51.990;5.926;2022-08-05T07:57:38;4.43;;;0.77;;
47335;SDS011;33068;51.990;5.926;2022-08-05T08:00:05;2.25;;;0.70;;
47335;SDS011;33068;51.990;5.926;2022-08-05T08:02:39;3.40;;;0.60;;
47335;SDS011;33068;51.990;5.926;2022-08-05T08:05:09;2.60;;;0.73;;
47335;SDS011;33068;51.990;5.926;2022-08-05T08:07:36;3.55;;;0.60;;
47335;SDS011;33068;51.990;5.926;2022-08-05T08:10:04;1.58;;;0.40;;
47335;SDS011;33068;51.990;5.926;2022-08-05T08:12:33;2.17;;;0.50;;
47335;SDS011;33068;51.990;5.926;2022-08-05T08:15:00;2.28;;;0.60;;
47335;SDS011;33068;51.990;5.926;2022-08-05T08:17:28;2.00;;;0.50;;
47335;SDS011;33068;51.990;5.926;2022-08-05T08:19:56;3.47;;;0.30;;
47335;SDS011;33068;51.990;5.926;2022-08-05T08:22:24;1.92;;;0.40;;
47335;SDS011;33068;51.990;5.926;2022-08-05T08:24:52;1.35;;;0.63;;
47335;SDS011;33068;51.990;5.926;2022-08-05T08:27:19;0.57;;;0.52;;
47335;SDS011;33068;51.990;5.926;2022-08-05T08:29:48;3.30;;;0.40;;
47335;SDS011;33068;51.990;5.926;2022-08-05T08:32:15;1.02;;;0.43;;
47335;SDS011;33068;51.990;5.926;2022-08-05T08:34:43;1.58;;;0.35;;
47335;SDS011;33068;51.990;5.926;2022-08-05T08:37:10;2.53;;;0.50;;
47335;SDS011;33068;51.990;5.926;2022-08-05T08:39:37;0.47;;;0.30;;
47335;SDS011;33068;51.990;5.926;2022-08-05T08:42:04;1.10;;;0.35;;
47335;SDS011;33068;51.990;5.926;2022-08-05T08:44:35;3.80;;;0.60;;
47335;SDS011;33068;51.990;5.926;2022-08-05T08:47:04;0.82;;;0.50;;
47335;SDS011;33068;51.990;5.926;2022-08-05T08:49:33;1.30;;;0.40;;
47335;SDS011;33068;51.990;5.926;2022-08-05T08:52:05;0.55;;;0.30;;
47335;SDS011;33068;51.990;5.926;2022-08-05T08:54:37;2.70;;;0.40;;
47335;SDS011;33068;51.990;5.926;2022-08-05T08:57:05;2.05;;;0.38;;
47335;SDS011;33068;51.990;5.926;2022-08-05T08:59:33;3.53;;;0.57;;
47335;SDS011;33068;51.990;5.926;2022-08-05T09:02:03;1.08;;;0.35;;
47335;SDS011;33068;51.990;5.926;2022-08-05T09:04:32;3.25;;;0.40;;
47335;SDS011;33068;51.990;5.926;2022-08-05T09:07:04;1.85;;;0.47;;
47335;SDS011;33068;51.990;5.926;2022-08-05T09:09:34;1.98;;;0.50;;
47335;SDS011;33068;51.990;5.926;2022-08-05T09:12:06;1.80;;;0.35;;
47335;SDS011;33068;51.990;5.926;2022-08-05T09:14:34;0.93;;;0.30;;
47335;SDS011;33068;51.990;5.926;2022-08-05T09:17:03;0.35;;;0.35;;
47335;SDS011;33068;51.990;5.926;2022-08-05T09:19:33;1.38;;;0.32;;
47335;SDS011;33068;51.990;5.926;2022-08-05T09:22:00;0.88;;;0.30;;
47335;SDS011;33068;51.990;5.926;2022-08-05T09:24:28;1.75;;;0.30;;
47335;SDS011;33068;51.990;5.926;2022-08-05T09:26:56;3.15;;;0.40;;
47335;SDS011;33068;51.990;5.926;2022-08-05T09:29:35;2.50;;;0.22;;
47335;SDS011;33068;51.990;5.926;2022-08-05T09:32:06;3.30;;;0.35;;
47335;SDS011;33068;51.990;5.926;2022-08-05T09:34:49;2.28;;;0.35;;
47335;SDS011;33068;51.990;5.926;2022-08-05T09:37:18;3.83;;;0.30;;
47335;SDS011;33068;51.990;5.926;2022-08-05T09:39:46;0.10;;;0.10;;
47335;SDS011;33068;51.990;5.926;2022-08-05T09:42:14;6.72;;;0.50;;
47335;SDS011;33068;51.990;5.926;2022-08-05T09:44:43;0.40;;;0.17;;
47335;SDS011;33068;51.990;5.926;2022-08-05T09:47:12;0.22;;;0.20;;
47335;SDS011;33068;51.990;5.926;2022-08-05T09:49:42;3.55;;;0.20;;
47335;SDS011;33068;51.990;5.926;2022-08-05T09:52:22;0.93;;;0.10;;
47335;SDS011;33068;51.990;5.926;2022-08-05T09:54:51;1.70;;;0.30;;
47335;SDS011;33068;51.990;5.926;2022-08-05T09:57:30;1.27;;;0.13;;
47335;SDS011;33068;51.990;5.926;2022-08-05T10:00:00;2.42;;;0.10;;
47335;SDS011;33068;51.990;5.926;2022-08-05T10:02:30;0.10;;;0.10;;
47335;SDS011;33068;51.990;5.926;2022-08-05T10:05:04;0.95;;;0.13;;
47335;SDS011;33068;51.990;5.926;2022-08-05T10:07:43;1.33;;;0.20;;
47335;SDS011;33068;51.990;5.926;2022-08-05T10:10:11;0.63;;;0.10;;
47335;SDS011;33068;51.990;5.926;2022-08-05T10:12:39;0.10;;;0.10;;
47335;SDS011;33068;51.990;5.926;2022-08-05T10:15:17;0.10;;;0.00;;
47335;SDS011;33068;51.990;5.926;2022-08-05T10:18:07;2.83;;;0.00;;
47335;SDS011;33068;51.990;5.926;2022-08-05T10:20:38;0.10;;;0.00;;
47335;SDS011;33068;51.990;5.926;2022-08-05T10:23:10;0.10;;;0.10;;
47335;SDS011;33068;51.990;5.926;2022-08-05T10:25:38;0.55;;;0.10;;
47335;SDS011;33068;51.990;5.926;2022-08-05T10:28:05;0.40;;;0.20;;
47335;SDS011;33068;51.990;5.926;2022-08-05T10:30:37;1.85;;;0.10;;
47335;SDS011;33068;51.990;5.926;2022-08-05T10:33:05;0.65;;;0.20;;
47335;SDS011;33068;51.990;5.926;2022-08-05T10:35:33;0.90;;;0.10;;
47335;SDS011;33068;51.990;5.926;2022-08-05T10:38:01;2.00;;;0.20;;
47335;SDS011;33068;51.990;5.926;2022-08-05T10:40:32;0.90;;;0.10;;
47335;SDS011;33068;51.990;5.926;2022-08-05T10:43:07;3.03;;;0.17;;
47335;SDS011;33068;51.990;5.926;2022-08-05T10:45:42;2.58;;;0.20;;
47335;SDS011;33068;51.990;5.926;2022-08-05T10:51:12;1.02;;;0.20;;
47335;SDS011;33068;51.990;5.926;2022-08-05T10:53:41;0.95;;;0.10;;
47335;SDS011;33068;51.990;5.926;2022-08-05T10:56:15;0.40;;;0.17;;
47335;SDS011;33068;51.990;5.926;2022-08-05T10:58:47;0.52;;;0.10;;
47335;SDS011;33068;51.990;5.926;2022-08-05T11:01:30;1.50;;;0.20;;
47335;SDS011;33068;51.990;5.926;2022-08-05T11:04:07;0.10;;;0.10;;
47335;SDS011;33068;51.990;5.926;2022-08-05T11:09:36;1.33;;;0.17;;
47335;SDS011;33068;51.990;5.926;2022-08-05T11:15:19;1.35;;;0.10;;
47335;SDS011;33068;51.990;5.926;2022-08-05T11:17:48;0.98;;;0.10;;
47335;SDS011;33068;51.990;5.926;2022-08-05T11:20:36;0.82;;;0.10;;
47335;SDS011;33068;51.990;5.926;2022-08-05T11:25:59;2.28;;;0.20;;
47335;SDS011;33068;51.990;5.926;2022-08-05T11:28:41;0.30;;;0.10;;
47335;SDS011;33068;51.990;5.926;2022-08-05T11:31:18;0.63;;;0.10;;
47335;SDS011;33068;51.990;5.926;2022-08-05T11:33:52;0.82;;;0.10;;
47335;SDS011;33068;51.990;5.926;2022-08-05T11:36:21;0.20;;;0.20;;
47335;SDS011;33068;51.990;5.926;2022-08-05T11:39:16;0.32;;;0.10;;
47335;SDS011;33068;51.990;5.926;2022-08-05T11:42:12;3.88;;;0.13;;
47335;SDS011;33068;51.990;5.926;2022-08-05T11:44:41;1.38;;;0.20;;
47335;SDS011;33068;51.990;5.926;2022-08-05T11:47:10;0.20;;;0.20;;
47335;SDS011;33068;51.990;5.926;2022-08-05T11:49:37;0.28;;;0.10;;
47335;SDS011;33068;51.990;5.926;2022-08-05T11:52:06;0.30;;;0.17;;
47335;SDS011;33068;51.990;5.926;2022-08-05T11:54:34;0.43;;;0.10;;
47335;SDS011;33068;51.990;5.926;2022-08-05T11:57:03;0.32;;;0.10;;
47335;SDS011;33068;51.990;5.926;2022-08-05T11:59:31;0.00;;;0.00;;
47335;SDS011;33068;51.990;5.926;2022-08-05T12:02:01;0.85;;;0.40;;
47335;SDS011;33068;51.990;5.926;2022-08-05T12:04:37;0.40;;;0.10;;
47335;SDS011;33068;51.990;5.926;2022-08-05T12:07:05;0.93;;;0.10;;
47335;SDS011;33068;51.990;5.926;2022-08-05T12:09:35;1.00;;;0.22;;
47335;SDS011;33068;51.990;5.926;2022-08-05T12:12:03;0.55;;;0.10;;
47335;SDS011;33068;51.990;5.926;2022-08-05T12:14:36;0.28;;;0.10;;
47335;SDS011;33068;51.990;5.926;2022-08-05T12:17:07;0.80;;;0.10;;
47335;SDS011;33068;51.990;5.926;2022-08-05T12:19:43;0.47;;;0.20;;
47335;SDS011;33068;51.990;5.926;2022-08-05T12:22:13;1.73;;;0.10;;
47335;SDS011;33068;51.990;5.926;2022-08-05T12:24:41;0.20;;;0.10;;
47335;SDS011;33068;51.990;5.926;2022-08-05T12:27:14;1.65;;;0.10;;
47335;SDS011;33068;51.990;5.926;2022-08-05T12:32:23;0.38;;;0.10;;
47335;SDS011;33068;51.990;5.926;2022-08-05T12:34:51;1.77;;;0.10;;
47335;SDS011;33068;51.990;5.926;2022-08-05T12:37:19;0.10;;;0.10;;
47335;SDS011;33068;51.990;5.926;2022-08-05T12:39:46;0.30;;;0.10;;
47335;SDS011;33068;51.990;5.926;2022-08-05T12:42:15;0.43;;;0.10;;
47335;SDS011;33068;51.990;5.926;2022-08-05T12:44:44;2.45;;;0.20;;
47335;SDS011;33068;51.990;5.926;2022-08-05T12:47:11;0.52;;;0.08;;
47335;SDS011;33068;51.990;5.926;2022-08-05T12:49:43;0.20;;;0.00;;
47335;SDS011;33068;51.990;5.926;2022-08-05T12:52:15;2.42;;;0.20;;
47335;SDS011;33068;51.990;5.926;2022-08-05T12:54:43;3.05;;;0.00;;
47335;SDS011;33068;51.990;5.926;2022-08-05T12:57:13;0.00;;;0.00;;
47335;SDS011;33068;51.990;5.926;2022-08-05T12:59:44;1.65;;;0.10;;
47335;SDS011;33068;51.990;5.926;2022-08-05T13:02:15;2.40;;;0.10;;
47335;SDS011;33068;51.990;5.926;2022-08-05T13:04:48;1.40;;;0.20;;
47335;SDS011;33068;51.990;5.926;2022-08-05T13:07:20;0.80;;;0.20;;
47335;SDS011;33068;51.990;5.926;2022-08-05T13:09:50;0.30;;;0.10;;
47335;SDS011;33068;51.990;5.926;2022-08-05T13:12:19;0.35;;;0.10;;
47335;SDS011;33068;51.990;5.926;2022-08-05T13:14:47;0.75;;;0.10;;
47335;SDS011;33068;51.990;5.926;2022-08-05T13:17:16;0.73;;;0.03;;
47335;SDS011;33068;51.990;5.926;2022-08-05T13:19:58;0.05;;;0.00;;
47335;SDS011;33068;51.990;5.926;2022-08-05T13:22:36;0.93;;;0.10;;
47335;SDS011;33068;51.990;5.926;2022-08-05T13:25:05;3.30;;;0.10;;
47335;SDS011;33068;51.990;5.926;2022-08-05T13:27:34;0.30;;;0.20;;
47335;SDS011;33068;51.990;5.926;2022-08-05T13:30:04;0.25;;;0.10;;
47335;SDS011;33068;51.990;5.926;2022-08-05T13:32:33;1.27;;;0.10;;
47335;SDS011;33068;51.990;5.926;2022-08-05T13:35:00;0.50;;;0.10;;
47335;SDS011;33068;51.990;5.926;2022-08-05T13:37:28;0.73;;;0.00;;
47335;SDS011;33068;51.990;5.926;2022-08-05T13:39:56;1.10;;;0.20;;
47335;SDS011;33068;51.990;5.926;2022-08-05T13:42:24;0.40;;;0.20;;
47335;SDS011;33068;51.990;5.926;2022-08-05T13:44:51;0.52;;;0.10;;
47335;SDS011;33068;51.990;5.926;2022-08-05T13:47:19;0.68;;;0.10;;
47335;SDS011;33068;51.990;5.926;2022-08-05T13:49:47;2.20;;;0.08;;
47335;SDS011;33068;51.990;5.926;2022-08-05T13:52:16;2.25;;;0.20;;
47335;SDS011;33068;51.990;5.926;2022-08-05T13:54:44;0.13;;;0.10;;
47335;SDS011;33068;51.990;5.926;2022-08-05T13:57:13;2.22;;;0.10;;
47335;SDS011;33068;51.990;5.926;2022-08-05T13:59:42;0.13;;;0.10;;
47335;SDS011;33068;51.990;5.926;2022-08-05T14:02:10;1.85;;;0.05;;
47335;SDS011;33068;51.990;5.926;2022-08-05T14:04:39;0.30;;;0.15;;
47335;SDS011;33068;51.990;5.926;2022-08-05T14:09:53;2.83;;;0.28;;
47335;SDS011;33068;51.990;5.926;2022-08-05T14:12:22;0.35;;;0.10;;
47335;SDS011;33068;51.990;5.926;2022-08-05T14:14:49;1.23;;;0.47;;
47335;SDS011;33068;51.990;5.926;2022-08-05T14:17:17;0.10;;;0.00;;
47335;SDS011;33068;51.990;5.926;2022-08-05T14:19:47;0.60;;;0.10;;
47335;SDS011;33068;51.990;5.926;2022-08-05T14:22:14;0.60;;;0.10;;
47335;SDS011;33068;51.990;5.926;2022-08-05T14:24:42;1.02;;;0.10;;
47335;SDS011;33068;51.990;5.926;2022-08-05T14:27:09;0.88;;;0.13;;
47335;SDS011;33068;51.990;5.926;2022-08-05T14:29:38;0.10;;;0.10;;
47335;SDS011;33068;51.990;5.926;2022-08-05T14:32:05;2.40;;;0.20;;
47335;SDS011;33068;51.990;5.926;2022-08-05T14:34:32;0.25;;;0.10;;
47335;SDS011;33068;51.990;5.926;2022-08-05T14:37:00;2.05;;;0.30;;
47335;SDS011;33068;51.990;5.926;2022-08-05T14:39:31;0.35;;;0.10;;
47335;SDS011;33068;51.990;5.926;2022-08-05T14:41:59;0.30;;;0.20;;
47335;SDS011;33068;51.990;5.926;2022-08-05T14:44:26;1.20;;;0.30;;
47335;SDS011;33068;51.990;5.926;2022-08-05T14:46:54;0.32;;;0.10;;
47335;SDS011;33068;51.990;5.926;2022-08-05T14:49:21;0.80;;;0.25;;
47335;SDS011;33068;51.990;5.926;2022-08-05T14:51:49;1.50;;;0.13;;
47335;SDS011;33068;51.990;5.926;2022-08-05T14:54:16;0.20;;;0.10;;
47335;SDS011;33068;51.990;5.926;2022-08-05T14:56:43;0.40;;;0.20;;
47335;SDS011;33068;51.990;5.926;2022-08-05T14:59:11;2.28;;;0.10;;
47335;SDS011;33068;51.990;5.926;2022-08-05T15:01:38;0.93;;;0.20;;
47335;SDS011;33068;51.990;5.926;2022-08-05T15:04:07;0.30;;;0.10;;
47335;SDS011;33068;51.990;5.926;2022-08-05T15:06:36;0.47;;;0.10;;
47335;SDS011;33068;51.990;5.926;2022-08-05T15:09:03;0.22;;;0.10;;
47335;SDS011;33068;51.990;5.926;2022-08-05T15:11:31;1.05;;;0.20;;
47335;SDS011;33068;51.990;5.926;2022-08-05T15:13:59;0.32;;;0.17;;
47335;SDS011;33068;51.990;5.926;2022-08-05T15:16:26;0.40;;;0.15;;
47335;SDS011;33068;51.990;5.926;2022-08-05T15:18:54;2.00;;;0.10;;
47335;SDS011;33068;51.990;5.926;2022-08-05T15:21:23;1.27;;;0.20;;
47335;SDS011;33068;51.990;5.926;2022-08-05T15:23:50;0.90;;;0.20;;